sensor_id;sensor_type;location;lat;lon;timestamp;temperature;humidity
84067;SHT35;74151;52.134;5.500;2024-03-17T00:00:06;5.40;79.55
84067;SHT35;74151;52.134;5.500;2024-03-17T00:02:45;5.40;79.91
84067;SHT35;74151;52.134;5.500;2024-03-17T00:05:19;5.42;79.44
84067;SHT35;74151;52.134;5.500;2024-03-17T00:07:56;5.44;79.71
84067;SHT35;74151;52.134;5.500;2024-03-17T00:10:29;5.46;79.36
84067;SHT35;74151;52.134;5.500;2024-03-17T00:13:01;5.48;79.29
84067;SHT35;74151;52.134;5.500;2024-03-17T00:15:31;5.49;79.14
84067;SHT35;74151;52.134;5.500;2024-03-17T00:18:04;5.49;79.09
84067;SHT35;74151;52.134;5.500;2024-03-17T00:20:39;5.46;79.22
84067;SHT35;74151;52.134;5.500;2024-03-17T00:23:13;5.44;79.23
84067;SHT35;74151;52.134;5.500;2024-03-17T00:25:43;5.42;79.11
84067;SHT35;74151;52.134;5.500;2024-03-17T00:28:17;5.42;79.19
84067;SHT35;74151;52.134;5.500;2024-03-17T00:30:50;5.43;79.23
84067;SHT35;74151;52.134;5.500;2024-03-17T00:33:20;5.44;79.09
84067;SHT35;74151;52.134;5.500;2024-03-17T00:35:53;5.45;79.01
84067;SHT35;74151;52.134;5.500;2024-03-17T00:38:22;5.46;79.13
84067;SHT35;74151;52.134;5.500;2024-03-17T00:40:55;5.47;78.44
84067;SHT35;74151;52.134;5.500;2024-03-17T00:43:25;5.47;78.89
84067;SHT35;74151;52.134;5.500;2024-03-17T00:46:00;5.49;79.08
84067;SHT35;74151;52.134;5.500;2024-03-17T00:48:32;5.51;79.22
84067;SHT35;74151;52.134;5.500;2024-03-17T00:51:04;5.54;78.91
84067;SHT35;74151;52.134;5.500;2024-03-17T00:53:36;5.57;78.83
84067;SHT35;74151;52.134;5.500;2024-03-17T00:56:07;5.61;78.74
84067;SHT35;74151;52.134;5.500;2024-03-17T00:58:39;5.63;78.59
84067;SHT35;74151;52.134;5.500;2024-03-17T01:01:09;5.65;78.62
84067;SHT35;74151;52.134;5.500;2024-03-17T01:03:41;5.67;78.65
84067;SHT35;74151;52.134;5.500;2024-03-17T01:06:14;5.67;78.40
84067;SHT35;74151;52.134;5.500;2024-03-17T01:08:44;5.66;78.52
84067;SHT35;74151;52.134;5.500;2024-03-17T01:11:15;5.64;78.53
84067;SHT35;74151;52.134;5.500;2024-03-17T01:13:49;5.64;78.93
84067;SHT35;74151;52.134;5.500;2024-03-17T01:16:19;5.60;78.98
84067;SHT35;74151;52.134;5.500;2024-03-17T01:18:53;5.57;79.28
84067;SHT35;74151;52.134;5.500;2024-03-17T01:21:23;5.52;79.46
84067;SHT35;74151;52.134;5.500;2024-03-17T01:23:53;5.50;79.55
84067;SHT35;74151;52.134;5.500;2024-03-17T01:26:27;5.49;79.60
84067;SHT35;74151;52.134;5.500;2024-03-17T01:29:00;5.47;79.71
84067;SHT35;74151;52.134;5.500;2024-03-17T01:31:30;5.47;79.55
84067;SHT35;74151;52.134;5.500;2024-03-17T01:34:05;5.47;79.49
84067;SHT35;74151;52.134;5.500;2024-03-17T01:36:38;5.46;79.57
84067;SHT35;74151;52.134;5.500;2024-03-17T01:39:08;5.46;79.87
84067;SHT35;74151;52.134;5.500;2024-03-17T01:41:39;5.49;79.87
84067;SHT35;74151;52.134;5.500;2024-03-17T01:44:22;5.51;79.66
84067;SHT35;74151;52.134;5.500;2024-03-17T01:46:57;5.53;79.70
84067;SHT35;74151;52.134;5.500;2024-03-17T01:49:34;5.55;79.49
84067;SHT35;74151;52.134;5.500;2024-03-17T01:52:07;5.56;79.50
84067;SHT35;74151;52.134;5.500;2024-03-17T01:54:40;5.58;79.53
84067;SHT35;74151;52.134;5.500;2024-03-17T01:57:10;5.60;79.41
84067;SHT35;74151;52.134;5.500;2024-03-17T01:59:40;5.60;79.37
84067;SHT35;74151;52.134;5.500;2024-03-17T02:02:10;5.60;79.36
84067;SHT35;74151;52.134;5.500;2024-03-17T02:04:43;5.60;79.27
84067;SHT35;74151;52.134;5.500;2024-03-17T02:07:13;5.61;79.28
84067;SHT35;74151;52.134;5.500;2024-03-17T02:09:43;5.61;79.20
84067;SHT35;74151;52.134;5.500;2024-03-17T02:12:16;5.61;79.29
84067;SHT35;74151;52.134;5.500;2024-03-17T02:14:46;5.61;79.23
84067;SHT35;74151;52.134;5.500;2024-03-17T02:17:16;5.60;79.24
84067;SHT35;74151;52.134;5.500;2024-03-17T02:19:52;5.58;79.26
84067;SHT35;74151;52.134;5.500;2024-03-17T02:22:25;5.56;79.50
84067;SHT35;74151;52.134;5.500;2024-03-17T02:24:56;5.55;79.97
84067;SHT35;74151;52.134;5.500;2024-03-17T02:27:31;5.55;80.14
84067;SHT35;74151;52.134;5.500;2024-03-17T02:30:04;5.54;80.75
84067;SHT35;74151;52.134;5.500;2024-03-17T02:32:39;5.52;80.99
84067;SHT35;74151;52.134;5.500;2024-03-17T02:35:12;5.51;81.40
84067;SHT35;74151;52.134;5.500;2024-03-17T02:37:42;5.50;81.63
84067;SHT35;74151;52.134;5.500;2024-03-17T02:40:12;5.51;81.86
84067;SHT35;74151;52.134;5.500;2024-03-17T02:42:50;5.53;82.06
84067;SHT35;74151;52.134;5.500;2024-03-17T02:45:22;5.54;82.50
84067;SHT35;74151;52.134;5.500;2024-03-17T02:47:52;5.56;82.73
84067;SHT35;74151;52.134;5.500;2024-03-17T02:50:25;5.58;82.90
84067;SHT35;74151;52.134;5.500;2024-03-17T02:52:57;5.58;83.00
84067;SHT35;74151;52.134;5.500;2024-03-17T02:55:27;5.60;83.34
84067;SHT35;74151;52.134;5.500;2024-03-17T02:57:59;5.59;83.54
84067;SHT35;74151;52.134;5.500;2024-03-17T03:00:34;5.58;83.52
84067;SHT35;74151;52.134;5.500;2024-03-17T03:03:07;5.58;83.82
84067;SHT35;74151;52.134;5.500;2024-03-17T03:05:42;5.58;83.86
84067;SHT35;74151;52.134;5.500;2024-03-17T03:08:16;5.59;83.97
84067;SHT35;74151;52.134;5.500;2024-03-17T03:10:51;5.60;84.24
84067;SHT35;74151;52.134;5.500;2024-03-17T03:13:21;5.61;84.36
84067;SHT35;74151;52.134;5.500;2024-03-17T03:15:51;5.62;84.60
84067;SHT35;74151;52.134;5.500;2024-03-17T03:18:24;5.64;84.48
84067;SHT35;74151;52.134;5.500;2024-03-17T03:20:58;5.67;84.65
84067;SHT35;74151;52.134;5.500;2024-03-17T03:23:31;5.69;84.64
84067;SHT35;74151;52.134;5.500;2024-03-17T03:26:06;5.71;84.70
84067;SHT35;74151;52.134;5.500;2024-03-17T03:28:36;5.72;85.15
84067;SHT35;74151;52.134;5.500;2024-03-17T03:31:14;5.74;85.05
84067;SHT35;74151;52.134;5.500;2024-03-17T03:33:47;5.76;85.05
84067;SHT35;74151;52.134;5.500;2024-03-17T03:36:17;5.76;85.10
84067;SHT35;74151;52.134;5.500;2024-03-17T03:38:51;5.76;85.26
84067;SHT35;74151;52.134;5.500;2024-03-17T03:41:28;5.76;85.28
84067;SHT35;74151;52.134;5.500;2024-03-17T03:43:58;5.76;84.84
84067;SHT35;74151;52.134;5.500;2024-03-17T03:46:33;5.76;84.88
84067;SHT35;74151;52.134;5.500;2024-03-17T03:49:05;5.77;84.74
84067;SHT35;74151;52.134;5.500;2024-03-17T03:51:36;5.76;84.76
84067;SHT35;74151;52.134;5.500;2024-03-17T03:54:07;5.77;84.72
84067;SHT35;74151;52.134;5.500;2024-03-17T03:56:37;5.79;84.70
84067;SHT35;74151;52.134;5.500;2024-03-17T03:59:07;5.80;84.85
84067;SHT35;74151;52.134;5.500;2024-03-17T04:01:39;5.83;84.57
84067;SHT35;74151;52.134;5.500;2024-03-17T04:04:14;5.86;84.95
84067;SHT35;74151;52.134;5.500;2024-03-17T04:06:46;5.88;84.77
84067;SHT35;74151;52.134;5.500;2024-03-17T04:09:16;5.89;84.43
84067;SHT35;74151;52.134;5.500;2024-03-17T04:11:50;5.92;84.58
84067;SHT35;74151;52.134;5.500;2024-03-17T04:14:20;5.92;84.61
84067;SHT35;74151;52.134;5.500;2024-03-17T04:16:52;5.94;84.54
84067;SHT35;74151;52.134;5.500;2024-03-17T04:19:30;5.95;84.61
84067;SHT35;74151;52.134;5.500;2024-03-17T04:22:05;5.96;84.47
84067;SHT35;74151;52.134;5.500;2024-03-17T04:24:40;5.96;84.51
84067;SHT35;74151;52.134;5.500;2024-03-17T04:27:10;5.97;84.36
84067;SHT35;74151;52.134;5.500;2024-03-17T04:29:43;5.97;84.32
84067;SHT35;74151;52.134;5.500;2024-03-17T04:32:18;5.96;84.34
84067;SHT35;74151;52.134;5.500;2024-03-17T04:34:55;5.93;84.62
84067;SHT35;74151;52.134;5.500;2024-03-17T04:37:25;5.90;84.63
84067;SHT35;74151;52.134;5.500;2024-03-17T04:39:58;5.88;84.72
84067;SHT35;74151;52.134;5.500;2024-03-17T04:42:31;5.86;84.66
84067;SHT35;74151;52.134;5.500;2024-03-17T04:45:01;5.86;84.66
84067;SHT35;74151;52.134;5.500;2024-03-17T04:47:38;5.86;84.68
84067;SHT35;74151;52.134;5.500;2024-03-17T04:50:08;5.84;84.67
84067;SHT35;74151;52.134;5.500;2024-03-17T04:52:40;5.83;84.72
84067;SHT35;74151;52.134;5.500;2024-03-17T04:55:12;5.83;84.46
84067;SHT35;74151;52.134;5.500;2024-03-17T04:57:49;5.83;84.51
84067;SHT35;74151;52.134;5.500;2024-03-17T05:00:19;5.83;84.62
84067;SHT35;74151;52.134;5.500;2024-03-17T05:02:54;5.81;84.67
84067;SHT35;74151;52.134;5.500;2024-03-17T05:05:26;5.78;84.88
84067;SHT35;74151;52.134;5.500;2024-03-17T05:07:57;5.78;85.07
84067;SHT35;74151;52.134;5.500;2024-03-17T05:10:27;5.76;85.14
84067;SHT35;74151;52.134;5.500;2024-03-17T05:12:57;5.77;85.35
84067;SHT35;74151;52.134;5.500;2024-03-17T05:15:29;5.78;85.46
84067;SHT35;74151;52.134;5.500;2024-03-17T05:18:01;5.79;85.57
84067;SHT35;74151;52.134;5.500;2024-03-17T05:20:31;5.80;85.59
84067;SHT35;74151;52.134;5.500;2024-03-17T05:23:01;5.82;85.68
84067;SHT35;74151;52.134;5.500;2024-03-17T05:25:32;5.83;85.63
84067;SHT35;74151;52.134;5.500;2024-03-17T05:28:12;5.85;85.68
84067;SHT35;74151;52.134;5.500;2024-03-17T05:30:44;5.86;85.53
84067;SHT35;74151;52.134;5.500;2024-03-17T05:33:18;5.88;85.47
84067;SHT35;74151;52.134;5.500;2024-03-17T05:35:50;5.89;85.58
84067;SHT35;74151;52.134;5.500;2024-03-17T05:38:24;5.92;85.40
84067;SHT35;74151;52.134;5.500;2024-03-17T05:41:03;5.93;85.37
84067;SHT35;74151;52.134;5.500;2024-03-17T05:43:38;5.95;85.24
84067;SHT35;74151;52.134;5.500;2024-03-17T05:46:11;5.96;85.27
84067;SHT35;74151;52.134;5.500;2024-03-17T05:48:44;5.96;85.37
84067;SHT35;74151;52.134;5.500;2024-03-17T05:51:14;5.96;85.43
84067;SHT35;74151;52.134;5.500;2024-03-17T05:53:47;5.95;85.61
84067;SHT35;74151;52.134;5.500;2024-03-17T05:56:20;5.95;85.44
84067;SHT35;74151;52.134;5.500;2024-03-17T05:58:50;5.95;85.73
84067;SHT35;74151;52.134;5.500;2024-03-17T06:01:25;5.96;85.81
84067;SHT35;74151;52.134;5.500;2024-03-17T06:03:57;5.96;85.79
84067;SHT35;74151;52.134;5.500;2024-03-17T06:06:27;5.95;85.85
84067;SHT35;74151;52.134;5.500;2024-03-17T06:08:59;5.95;85.93
84067;SHT35;74151;52.134;5.500;2024-03-17T06:11:30;5.94;85.73
84067;SHT35;74151;52.134;5.500;2024-03-17T06:14:05;5.92;86.03
84067;SHT35;74151;52.134;5.500;2024-03-17T06:16:42;5.92;85.89
84067;SHT35;74151;52.134;5.500;2024-03-17T06:19:12;5.92;85.94
84067;SHT35;74151;52.134;5.500;2024-03-17T06:21:42;5.95;85.95
84067;SHT35;74151;52.134;5.500;2024-03-17T06:24:16;5.98;86.07
84067;SHT35;74151;52.134;5.500;2024-03-17T06:26:50;6.02;85.80
84067;SHT35;74151;52.134;5.500;2024-03-17T06:29:20;6.06;85.95
84067;SHT35;74151;52.134;5.500;2024-03-17T06:31:53;6.11;86.16
84067;SHT35;74151;52.134;5.500;2024-03-17T06:34:23;6.16;86.27
84067;SHT35;74151;52.134;5.500;2024-03-17T06:36:57;6.22;85.81
84067;SHT35;74151;52.134;5.500;2024-03-17T06:39:30;6.28;85.44
84067;SHT35;74151;52.134;5.500;2024-03-17T06:42:05;6.33;85.42
84067;SHT35;74151;52.134;5.500;2024-03-17T06:44:36;6.39;85.33
84067;SHT35;74151;52.134;5.500;2024-03-17T06:47:07;6.46;85.43
84067;SHT35;74151;52.134;5.500;2024-03-17T06:49:37;6.52;85.45
84067;SHT35;74151;52.134;5.500;2024-03-17T06:52:12;6.60;85.16
84067;SHT35;74151;52.134;5.500;2024-03-17T06:54:44;6.69;84.76
84067;SHT35;74151;52.134;5.500;2024-03-17T06:57:21;6.78;84.84
84067;SHT35;74151;52.134;5.500;2024-03-17T06:59:53;6.81;83.87
84067;SHT35;74151;52.134;5.500;2024-03-17T07:02:28;6.83;83.34
84067;SHT35;74151;52.134;5.500;2024-03-17T07:05:00;6.86;82.27
84067;SHT35;74151;52.134;5.500;2024-03-17T07:07:33;6.89;81.87
84067;SHT35;74151;52.134;5.500;2024-03-17T07:10:03;6.93;82.33
84067;SHT35;74151;52.134;5.500;2024-03-17T07:12:36;6.96;81.98
84067;SHT35;74151;52.134;5.500;2024-03-17T07:15:11;7.00;81.59
84067;SHT35;74151;52.134;5.500;2024-03-17T07:17:43;7.04;82.04
84067;SHT35;74151;52.134;5.500;2024-03-17T07:20:20;7.07;82.60
84067;SHT35;74151;52.134;5.500;2024-03-17T07:22:58;7.11;82.64
84067;SHT35;74151;52.134;5.500;2024-03-17T07:25:31;7.15;81.74
84067;SHT35;74151;52.134;5.500;2024-03-17T07:28:01;7.20;81.90
84067;SHT35;74151;52.134;5.500;2024-03-17T07:30:33;7.24;81.81
84067;SHT35;74151;52.134;5.500;2024-03-17T07:33:05;7.30;82.13
84067;SHT35;74151;52.134;5.500;2024-03-17T07:35:49;7.38;81.61
84067;SHT35;74151;52.134;5.500;2024-03-17T07:38:24;7.47;82.32
84067;SHT35;74151;52.134;5.500;2024-03-17T07:41:00;7.55;81.29
84067;SHT35;74151;52.134;5.500;2024-03-17T07:43:37;7.62;79.68
84067;SHT35;74151;52.134;5.500;2024-03-17T07:46:13;7.68;79.61
84067;SHT35;74151;52.134;5.500;2024-03-17T07:48:48;7.73;79.26
84067;SHT35;74151;52.134;5.500;2024-03-17T07:51:23;7.79;80.20
84067;SHT35;74151;52.134;5.500;2024-03-17T07:53:53;7.88;80.32
84067;SHT35;74151;52.134;5.500;2024-03-17T07:56:24;8.01;80.35
84067;SHT35;74151;52.134;5.500;2024-03-17T07:58:58;8.12;79.49
84067;SHT35;74151;52.134;5.500;2024-03-17T08:01:28;8.25;79.25
84067;SHT35;74151;52.134;5.500;2024-03-17T08:03:59;8.39;78.44
84067;SHT35;74151;52.134;5.500;2024-03-17T08:06:34;8.56;77.62
84067;SHT35;74151;52.134;5.500;2024-03-17T08:09:12;8.65;76.64
84067;SHT35;74151;52.134;5.500;2024-03-17T08:11:47;8.77;76.89
84067;SHT35;74151;52.134;5.500;2024-03-17T08:14:20;8.84;76.19
84067;SHT35;74151;52.134;5.500;2024-03-17T08:16:55;8.83;76.46
84067;SHT35;74151;52.134;5.500;2024-03-17T08:19:30;8.85;76.21
84067;SHT35;74151;52.134;5.500;2024-03-17T08:22:00;8.77;75.66
84067;SHT35;74151;52.134;5.500;2024-03-17T08:24:32;8.70;76.15
84067;SHT35;74151;52.134;5.500;2024-03-17T08:27:02;8.61;77.57
84067;SHT35;74151;52.134;5.500;2024-03-17T08:29:37;8.59;79.03
84067;SHT35;74151;52.134;5.500;2024-03-17T08:32:07;8.56;77.52
84067;SHT35;74151;52.134;5.500;2024-03-17T08:34:39;8.53;78.61
84067;SHT35;74151;52.134;5.500;2024-03-17T08:37:11;8.52;78.53
84067;SHT35;74151;52.134;5.500;2024-03-17T08:39:44;8.52;78.34
84067;SHT35;74151;52.134;5.500;2024-03-17T08:42:14;8.48;77.52
84067;SHT35;74151;52.134;5.500;2024-03-17T08:44:49;8.43;78.05
84067;SHT35;74151;52.134;5.500;2024-03-17T08:47:21;8.41;79.39
84067;SHT35;74151;52.134;5.500;2024-03-17T08:49:54;8.41;78.31
84067;SHT35;74151;52.134;5.500;2024-03-17T08:52:36;8.40;78.74
84067;SHT35;74151;52.134;5.500;2024-03-17T08:55:13;8.39;79.84
84067;SHT35;74151;52.134;5.500;2024-03-17T08:57:48;8.38;79.32
84067;SHT35;74151;52.134;5.500;2024-03-17T09:00:20;8.38;78.76
84067;SHT35;74151;52.134;5.500;2024-03-17T09:02:55;8.38;78.52
84067;SHT35;74151;52.134;5.500;2024-03-17T09:05:25;8.39;79.70
84067;SHT35;74151;52.134;5.500;2024-03-17T09:07:59;8.40;79.09
84067;SHT35;74151;52.134;5.500;2024-03-17T09:10:32;8.40;78.90
84067;SHT35;74151;52.134;5.500;2024-03-17T09:13:02;8.42;79.30
84067;SHT35;74151;52.134;5.500;2024-03-17T09:15:37;8.48;79.70
84067;SHT35;74151;52.134;5.500;2024-03-17T09:18:07;8.54;79.31
84067;SHT35;74151;52.134;5.500;2024-03-17T09:20:37;8.62;79.58
84067;SHT35;74151;52.134;5.500;2024-03-17T09:23:09;8.72;79.93
84067;SHT35;74151;52.134;5.500;2024-03-17T09:26:04;8.80;77.90
84067;SHT35;74151;52.134;5.500;2024-03-17T09:28:39;8.86;78.16
84067;SHT35;74151;52.134;5.500;2024-03-17T09:31:14;8.94;78.21
84067;SHT35;74151;52.134;5.500;2024-03-17T09:33:46;9.05;77.72
84067;SHT35;74151;52.134;5.500;2024-03-17T09:36:16;9.12;75.93
84067;SHT35;74151;52.134;5.500;2024-03-17T09:38:49;9.16;75.85
84067;SHT35;74151;52.134;5.500;2024-03-17T09:41:24;9.19;76.15
84067;SHT35;74151;52.134;5.500;2024-03-17T09:43:56;9.21;76.15
84067;SHT35;74151;52.134;5.500;2024-03-17T09:46:27;9.22;76.94
84067;SHT35;74151;52.134;5.500;2024-03-17T09:48:59;9.21;76.07
84067;SHT35;74151;52.134;5.500;2024-03-17T09:51:38;9.22;76.28
84067;SHT35;74151;52.134;5.500;2024-03-17T09:54:17;9.24;77.14
84067;SHT35;74151;52.134;5.500;2024-03-17T09:56:52;9.28;76.98
84067;SHT35;74151;52.134;5.500;2024-03-17T09:59:22;9.34;77.17
84067;SHT35;74151;52.134;5.500;2024-03-17T10:01:57;9.43;76.89
84067;SHT35;74151;52.134;5.500;2024-03-17T10:04:33;9.53;76.25
84067;SHT35;74151;52.134;5.500;2024-03-17T10:07:03;9.63;76.41
84067;SHT35;74151;52.134;5.500;2024-03-17T10:09:35;9.76;76.61
84067;SHT35;74151;52.134;5.500;2024-03-17T10:12:26;9.87;76.18
84067;SHT35;74151;52.134;5.500;2024-03-17T10:15:00;10.03;75.78
84067;SHT35;74151;52.134;5.500;2024-03-17T10:17:33;10.17;76.61
84067;SHT35;74151;52.134;5.500;2024-03-17T10:20:19;10.34;75.60
84067;SHT35;74151;52.134;5.500;2024-03-17T10:25:39;10.54;74.83
84067;SHT35;74151;52.134;5.500;2024-03-17T10:28:13;10.64;74.37
84067;SHT35;74151;52.134;5.500;2024-03-17T10:31:01;10.73;74.28
84067;SHT35;74151;52.134;5.500;2024-03-17T10:33:34;10.79;73.93
84067;SHT35;74151;52.134;5.500;2024-03-17T10:36:20;10.86;74.16
84067;SHT35;74151;52.134;5.500;2024-03-17T10:38:52;10.93;73.03
84067;SHT35;74151;52.134;5.500;2024-03-17T10:41:28;10.99;73.12
84067;SHT35;74151;52.134;5.500;2024-03-17T10:44:03;11.05;73.18
84067;SHT35;74151;52.134;5.500;2024-03-17T10:46:34;11.17;73.64
84067;SHT35;74151;52.134;5.500;2024-03-17T10:49:11;11.30;72.96
84067;SHT35;74151;52.134;5.500;2024-03-17T10:51:47;11.36;72.61
84067;SHT35;74151;52.134;5.500;2024-03-17T10:54:25;11.45;73.03
84067;SHT35;74151;52.134;5.500;2024-03-17T10:59:41;11.87;71.65
84067;SHT35;74151;52.134;5.500;2024-03-17T11:02:24;11.96;71.18
84067;SHT35;74151;52.134;5.500;2024-03-17T11:05:18;12.10;70.36
84067;SHT35;74151;52.134;5.500;2024-03-17T11:07:52;12.27;73.34
84067;SHT35;74151;52.134;5.500;2024-03-17T11:10:34;12.42;70.10
84067;SHT35;74151;52.134;5.500;2024-03-17T11:13:05;12.56;70.38
84067;SHT35;74151;52.134;5.500;2024-03-17T11:15:55;12.68;68.27
84067;SHT35;74151;52.134;5.500;2024-03-17T11:18:36;12.73;69.77
84067;SHT35;74151;52.134;5.500;2024-03-17T11:21:19;12.83;69.52
84067;SHT35;74151;52.134;5.500;2024-03-17T11:23:57;12.85;67.16
84067;SHT35;74151;52.134;5.500;2024-03-17T11:26:33;12.85;67.29
84067;SHT35;74151;52.134;5.500;2024-03-17T11:29:03;12.82;68.31
84067;SHT35;74151;52.134;5.500;2024-03-17T11:31:42;12.79;67.53
84067;SHT35;74151;52.134;5.500;2024-03-17T11:37:01;12.71;68.34
84067;SHT35;74151;52.134;5.500;2024-03-17T11:39:53;12.69;70.03
84067;SHT35;74151;52.134;5.500;2024-03-17T11:42:27;12.68;66.88
84067;SHT35;74151;52.134;5.500;2024-03-17T11:45:12;12.64;66.69
84067;SHT35;74151;52.134;5.500;2024-03-17T11:47:47;12.57;69.06
84067;SHT35;74151;52.134;5.500;2024-03-17T11:50:19;12.54;68.39
84067;SHT35;74151;52.134;5.500;2024-03-17T11:52:58;12.52;67.85
84067;SHT35;74151;52.134;5.500;2024-03-17T11:55:30;12.48;68.28
84067;SHT35;74151;52.134;5.500;2024-03-17T11:58:03;12.42;66.77
84067;SHT35;74151;52.134;5.500;2024-03-17T12:00:35;12.27;68.41
84067;SHT35;74151;52.134;5.500;2024-03-17T12:03:13;12.10;68.14
84067;SHT35;74151;52.134;5.500;2024-03-17T12:05:48;12.02;69.38
84067;SHT35;74151;52.134;5.500;2024-03-17T12:08:21;11.93;69.39
84067;SHT35;74151;52.134;5.500;2024-03-17T12:10:56;11.84;69.18
84067;SHT35;74151;52.134;5.500;2024-03-17T12:13:33;11.78;69.44
84067;SHT35;74151;52.134;5.500;2024-03-17T12:16:13;11.72;70.22
84067;SHT35;74151;52.134;5.500;2024-03-17T12:18:51;11.69;69.53
84067;SHT35;74151;52.134;5.500;2024-03-17T12:21:21;11.62;70.03
84067;SHT35;74151;52.134;5.500;2024-03-17T12:23:56;11.56;69.55
84067;SHT35;74151;52.134;5.500;2024-03-17T12:26:29;11.51;71.15
84067;SHT35;74151;52.134;5.500;2024-03-17T12:29:02;11.48;72.52
84067;SHT35;74151;52.134;5.500;2024-03-17T12:31:33;11.46;70.88
84067;SHT35;74151;52.134;5.500;2024-03-17T12:34:16;11.45;71.68
84067;SHT35;74151;52.134;5.500;2024-03-17T12:36:51;11.46;71.73
84067;SHT35;74151;52.134;5.500;2024-03-17T12:39:34;11.46;71.44
84067;SHT35;74151;52.134;5.500;2024-03-17T12:42:09;11.49;72.94
84067;SHT35;74151;52.134;5.500;2024-03-17T12:47:29;11.58;73.04
84067;SHT35;74151;52.134;5.500;2024-03-17T12:50:02;11.60;72.09
84067;SHT35;74151;52.134;5.500;2024-03-17T12:52:34;11.64;71.95
84067;SHT35;74151;52.134;5.500;2024-03-17T12:55:21;11.70;71.75
84067;SHT35;74151;52.134;5.500;2024-03-17T12:58:14;11.72;71.84
84067;SHT35;74151;52.134;5.500;2024-03-17T13:01:08;11.73;73.04
84067;SHT35;74151;52.134;5.500;2024-03-17T13:03:39;11.73;71.61
84067;SHT35;74151;52.134;5.500;2024-03-17T13:06:23;11.74;70.90
84067;SHT35;74151;52.134;5.500;2024-03-17T13:08:53;11.75;71.66
84067;SHT35;74151;52.134;5.500;2024-03-17T13:11:25;11.75;71.83
84067;SHT35;74151;52.134;5.500;2024-03-17T13:14:00;11.74;72.23
84067;SHT35;74151;52.134;5.500;2024-03-17T13:16:32;11.73;71.64
84067;SHT35;74151;52.134;5.500;2024-03-17T13:19:09;11.72;72.62
84067;SHT35;74151;52.134;5.500;2024-03-17T13:21:41;11.70;72.28
84067;SHT35;74151;52.134;5.500;2024-03-17T13:24:13;11.71;72.19
84067;SHT35;74151;52.134;5.500;2024-03-17T13:26:45;11.72;72.99
84067;SHT35;74151;52.134;5.500;2024-03-17T13:29:19;11.72;72.02
84067;SHT35;74151;52.134;5.500;2024-03-17T13:31:53;11.72;72.31
84067;SHT35;74151;52.134;5.500;2024-03-17T13:34:23;11.72;72.92
84067;SHT35;74151;52.134;5.500;2024-03-17T13:36:56;11.72;72.34
84067;SHT35;74151;52.134;5.500;2024-03-17T13:39:31;11.76;72.57
84067;SHT35;74151;52.134;5.500;2024-03-17T13:42:04;11.78;72.93
84067;SHT35;74151;52.134;5.500;2024-03-17T13:44:37;11.76;73.85
84067;SHT35;74151;52.134;5.500;2024-03-17T13:47:07;11.78;73.19
84067;SHT35;74151;52.134;5.500;2024-03-17T13:49:37;11.75;72.58
84067;SHT35;74151;52.134;5.500;2024-03-17T13:52:08;11.74;72.41
84067;SHT35;74151;52.134;5.500;2024-03-17T13:54:38;11.69;72.27
84067;SHT35;74151;52.134;5.500;2024-03-17T13:57:08;11.68;73.25
84067;SHT35;74151;52.134;5.500;2024-03-17T13:59:40;11.61;72.49
84067;SHT35;74151;52.134;5.500;2024-03-17T14:02:13;11.61;74.35
84067;SHT35;74151;52.134;5.500;2024-03-17T14:04:48;11.65;73.97
84067;SHT35;74151;52.134;5.500;2024-03-17T14:07:18;11.68;74.75
84067;SHT35;74151;52.134;5.500;2024-03-17T14:09:52;11.68;74.06
84067;SHT35;74151;52.134;5.500;2024-03-17T14:12:25;11.73;74.13
84067;SHT35;74151;52.134;5.500;2024-03-17T14:14:55;11.79;74.43
84067;SHT35;74151;52.134;5.500;2024-03-17T14:17:30;11.84;73.81
84067;SHT35;74151;52.134;5.500;2024-03-17T14:20:05;11.90;74.26
84067;SHT35;74151;52.134;5.500;2024-03-17T14:22:38;11.98;73.45
84067;SHT35;74151;52.134;5.500;2024-03-17T14:25:18;12.04;73.83
84067;SHT35;74151;52.134;5.500;2024-03-17T14:27:49;12.10;73.40
84067;SHT35;74151;52.134;5.500;2024-03-17T14:30:24;12.13;72.85
84067;SHT35;74151;52.134;5.500;2024-03-17T14:32:56;12.18;72.39
84067;SHT35;74151;52.134;5.500;2024-03-17T14:35:28;12.20;71.87
84067;SHT35;74151;52.134;5.500;2024-03-17T14:38:03;12.20;73.10
84067;SHT35;74151;52.134;5.500;2024-03-17T14:40:36;12.20;73.53
84067;SHT35;74151;52.134;5.500;2024-03-17T14:43:10;12.23;73.16
84067;SHT35;74151;52.134;5.500;2024-03-17T14:45:43;12.23;73.11
84067;SHT35;74151;52.134;5.500;2024-03-17T14:48:20;12.25;72.98
84067;SHT35;74151;52.134;5.500;2024-03-17T14:50:52;12.27;73.19
84067;SHT35;74151;52.134;5.500;2024-03-17T14:53:27;12.29;73.30
84067;SHT35;74151;52.134;5.500;2024-03-17T14:55:59;12.33;73.31
84067;SHT35;74151;52.134;5.500;2024-03-17T14:58:29;12.36;72.74
84067;SHT35;74151;52.134;5.500;2024-03-17T15:01:01;12.40;73.16
84067;SHT35;74151;52.134;5.500;2024-03-17T15:03:33;12.45;75.07
84067;SHT35;74151;52.134;5.500;2024-03-17T15:06:10;12.49;73.00
84067;SHT35;74151;52.134;5.500;2024-03-17T15:08:45;12.54;73.25
84067;SHT35;74151;52.134;5.500;2024-03-17T15:11:18;12.56;71.86
84067;SHT35;74151;52.134;5.500;2024-03-17T15:13:50;12.60;72.16
84067;SHT35;74151;52.134;5.500;2024-03-17T15:16:27;12.60;72.56
84067;SHT35;74151;52.134;5.500;2024-03-17T15:18:57;12.58;71.54
84067;SHT35;74151;52.134;5.500;2024-03-17T15:21:27;12.58;71.96
84067;SHT35;74151;52.134;5.500;2024-03-17T15:23:57;12.56;71.55
84067;SHT35;74151;52.134;5.500;2024-03-17T15:26:28;12.47;70.75
84067;SHT35;74151;52.134;5.500;2024-03-17T15:29:00;12.39;72.51
84067;SHT35;74151;52.134;5.500;2024-03-17T15:31:31;12.35;72.66
84067;SHT35;74151;52.134;5.500;2024-03-17T15:34:10;12.31;71.97
84067;SHT35;74151;52.134;5.500;2024-03-17T15:36:48;12.25;72.75
84067;SHT35;74151;52.134;5.500;2024-03-17T15:39:26;12.16;72.37
84067;SHT35;74151;52.134;5.500;2024-03-17T15:42:01;12.10;72.51
84067;SHT35;74151;52.134;5.500;2024-03-17T15:44:31;12.07;73.45
84067;SHT35;74151;52.134;5.500;2024-03-17T15:47:06;12.04;73.54
84067;SHT35;74151;52.134;5.500;2024-03-17T15:49:38;12.04;74.49
84067;SHT35;74151;52.134;5.500;2024-03-17T15:52:11;12.04;74.50
84067;SHT35;74151;52.134;5.500;2024-03-17T15:54:41;12.03;74.65
84067;SHT35;74151;52.134;5.500;2024-03-17T15:57:13;12.04;74.87
84067;SHT35;74151;52.134;5.500;2024-03-17T15:59:46;12.07;75.01
84067;SHT35;74151;52.134;5.500;2024-03-17T16:02:18;12.07;74.56
84067;SHT35;74151;52.134;5.500;2024-03-17T16:04:50;12.07;74.65
84067;SHT35;74151;52.134;5.500;2024-03-17T16:07:21;12.07;74.43
84067;SHT35;74151;52.134;5.500;2024-03-17T16:09:54;12.07;74.19
84067;SHT35;74151;52.134;5.500;2024-03-17T16:12:26;12.07;74.25
84067;SHT35;74151;52.134;5.500;2024-03-17T16:15:01;12.06;74.67
84067;SHT35;74151;52.134;5.500;2024-03-17T16:17:36;12.06;74.36
84067;SHT35;74151;52.134;5.500;2024-03-17T16:20:09;12.06;74.59
84067;SHT35;74151;52.134;5.500;2024-03-17T16:22:49;12.04;74.37
84067;SHT35;74151;52.134;5.500;2024-03-17T16:25:26;12.04;75.19
84067;SHT35;74151;52.134;5.500;2024-03-17T16:27:56;12.04;75.25
84067;SHT35;74151;52.134;5.500;2024-03-17T16:30:31;12.03;75.62